Time;durP1;ratioP1;P1;durP2;ratioP2;P2;SDS_P1;SDS_P2;PMS_P1;PMS_P2;Temp;Humidity;BMP_temperature;BMP_pressure;BME280_temperature;BME280_humidity;BME280_pressure;Samples;Min_cycle;Max_cycle;Signal;HPM_P1;HPM_P2
2023/01/31 18:58:05;;;;;;;29.60;17.70;;;;;;;-1.83;100.00;99726.38;104932;1263;62225;-56
2023/01/31 19:00:32;;;;;;;31.20;18.90;;;;;;;-1.79;100.00;99725.54;105403;1254;72772;-57
2023/01/31 19:03:00;;;;;;;28.40;18.10;;;;;;;-1.75;100.00;99724.86;105536;1259;60987;-57
2023/01/31 19:05:27;;;;;;;31.20;19.00;;;;;;;-1.71;100.00;99724.55;105397;1257;61864;-56
2023/01/31 19:07:54;;;;;;;33.80;21.10;;;;;;;-1.66;100.00;99724.70;105302;1259;75361;-56
2023/01/31 19:10:22;;;;;;;34.90;21.50;;;;;;;-1.62;100.00;99724.26;105462;1260;68632;-56
2023/01/31 19:12:50;;;;;;;38.70;22.60;;;;;;;-1.60;100.00;99724.59;105214;1256;74432;-56
2023/01/31 19:15:17;;;;;;;41.60;23.40;;;;;;;-1.59;100.00;99724.73;105082;1260;62909;-58
2023/01/31 19:17:44;;;;;;;44.70;25.80;;;;;;;-1.60;100.00;99721.66;105195;1260;60747;-59
2023/01/31 19:20:11;;;;;;;42.70;25.00;;;;;;;-1.59;100.00;99725.36;105411;1259;74473;-57
2023/01/31 19:22:38;;;;;;;42.80;24.90;;;;;;;-1.56;100.00;99723.29;105292;1257;68901;-56
2023/01/31 19:25:08;;;;;;;46.40;26.00;;;;;;;-1.57;100.00;99725.70;105404;1259;74237;-56
2023/01/31 19:27:35;;;;;;;60.70;34.20;;;;;;;-1.59;100.00;99725.92;105264;1259;60925;-57
2023/01/31 19:30:03;;;;;;;62.40;36.70;;;;;;;-1.65;100.00;99724.27;105312;1260;61127;-58
2023/01/31 19:32:32;;;;;;;61.10;34.00;;;;;;;-1.72;100.00;99724.48;105303;1255;74006;-57
2023/01/31 19:34:59;;;;;;;67.70;38.40;;;;;;;-1.78;100.00;99720.13;105551;1257;69011;-58
2023/01/31 19:37:27;;;;;;;65.60;39.70;;;;;;;-1.82;100.00;99717.60;105295;1259;73211;-57
2023/01/31 19:39:54;;;;;;;73.30;40.60;;;;;;;-1.86;100.00;99716.35;105359;1269;61095;-57
2023/01/31 19:42:22;;;;;;;66.80;39.30;;;;;;;-1.89;100.00;99718.47;105303;1259;60530;-56
2023/01/31 19:44:50;;;;;;;70.80;43.20;;;;;;;-1.94;100.00;99716.48;105383;1256;74427;-59
2023/01/31 19:47:17;;;;;;;72.20;40.80;;;;;;;-1.99;100.00;99719.73;105464;1260;68708;-59
2023/01/31 19:49:47;;;;;;;77.70;43.30;;;;;;;-2.03;100.00;99717.33;105283;1259;73474;-57
2023/01/31 19:52:14;;;;;;;72.60;41.20;;;;;;;-2.08;100.00;99717.00;105262;1259;61649;-56
2023/01/31 19:54:42;;;;;;;92.20;47.30;;;;;;;-2.11;100.00;99716.91;105386;1259;60351;-56
2023/01/31 19:57:11;;;;;;;68.10;41.10;;;;;;;-2.12;100.00;99714.91;105249;1260;74340;-56
2023/01/31 19:59:39;;;;;;;59.90;35.80;;;;;;;-2.11;100.00;99720.00;105305;1261;68383;-57
2023/01/31 20:02:08;;;;;;;68.00;37.80;;;;;;;-2.10;100.00;99718.73;105242;1260;73269;-56
2023/01/31 20:04:35;;;;;;;68.80;40.30;;;;;;;-2.11;100.00;99719.49;105280;1259;60540;-56
2023/01/31 20:07:04;;;;;;;72.40;41.30;;;;;;;-2.14;100.00;99719.52;105495;1260;61733;-57
2023/01/31 20:09:32;;;;;;;68.80;40.30;;;;;;;-2.18;100.00;99719.98;105450;1259;75423;-56
2023/01/31 20:11:59;;;;;;;67.10;40.20;;;;;;;-2.22;100.00;99719.54;105531;1260;68728;-58
2023/01/31 20:14:28;;;;;;;65.50;38.10;;;;;;;-2.24;100.00;99725.88;105369;1258;74048;-59
2023/01/31 20:16:55;;;;;;;68.00;39.90;;;;;;;-2.27;100.00;99726.09;105716;1258;61167;-61
2023/01/31 20:19:22;;;;;;;63.10;38.80;;;;;;;-2.30;100.00;99723.11;105103;1258;60850;-57
2023/01/31 20:21:50;;;;;;;67.60;39.60;;;;;;;-2.35;100.00;99720.54;105405;1259;75370;-58
2023/01/31 20:24:17;;;;;;;67.10;37.80;;;;;;;-2.42;100.00;99721.23;105578;1259;68426;-58
2023/01/31 20:26:44;;;;;;;67.30;40.20;;;;;;;-2.47;100.00;99723.48;105382;1256;73505;-59
2023/01/31 20:29:12;;;;;;;67.50;39.10;;;;;;;-2.51;100.00;99720.36;105619;1257;61381;-56
2023/01/31 20:31:39;;;;;;;74.60;40.90;;;;;;;-2.52;100.00;99719.26;106043;1260;61775;-57
2023/01/31 20:34:07;;;;;;;68.00;39.10;;;;;;;-2.52;100.00;99723.36;105703;1256;75313;-57
2023/01/31 20:36:34;;;;;;;68.60;38.80;;;;;;;-2.53;100.00;99722.54;105542;1260;69364;-57
2023/01/31 20:39:02;;;;;;;69.30;40.20;;;;;;;-2.54;100.00;99719.27;105229;1259;74085;-57
2023/01/31 20:41:29;;;;;;;69.80;41.00;;;;;;;-2.57;100.00;99722.69;105993;1257;61405;-57
2023/01/31 20:43:56;;;;;;;69.50;38.50;;;;;;;-2.57;100.00;99719.67;105576;1257;61874;-57
2023/01/31 20:46:24;;;;;;;64.20;38.30;;;;;;;-2.59;100.00;99720.60;105786;1259;75340;-59
2023/01/31 20:48:51;;;;;;;68.60;38.50;;;;;;;-2.61;100.00;99722.65;105247;1258;68705;-59
2023/01/31 20:51:19;;;;;;;59.00;36.40;;;;;;;-2.63;100.00;99721.42;105268;1258;74307;-57
2023/01/31 20:53:46;;;;;;;63.60;38.70;;;;;;;-2.67;100.00;99724.27;105451;1258;61531;-57
2023/01/31 20:56:14;;;;;;;58.50;35.50;;;;;;;-2.75;100.00;99726.33;105441;1258;61047;-57
2023/01/31 20:58:42;;;;;;;59.20;35.00;;;;;;;-2.81;100.00;99725.77;105385;1255;75233;-60
2023/01/31 21:01:10;;;;;;;72.40;42.40;;;;;;;-2.84;100.00;99724.67;105276;1256;67718;-57
2023/01/31 21:03:37;;;;;;;63.90;37.40;;;;;;;-2.88;100.00;99724.77;105857;1260;73011;-57
2023/01/31 21:06:05;;;;;;;63.70;38.30;;;;;;;-2.92;100.00;99723.51;105790;1256;60543;-57
2023/01/31 21:08:36;;;;;;;64.50;36.60;;;;;;;-2.97;100.00;99722.20;105288;1257;61914;-58
2023/01/31 21:11:06;;;;;;;71.40;40.30;;;;;;;-3.04;100.00;99717.88;105050;1260;75354;-56
2023/01/31 21:13:33;;;;;;;68.60;38.30;;;;;;;-3.12;100.00;99717.29;105925;1259;68597;-57
2023/01/31 21:16:02;;;;;;;67.60;39.00;;;;;;;-3.18;100.00;99723.33;105666;1260;74200;-57
2023/01/31 21:18:31;;;;;;;73.50;40.80;;;;;;;-3.25;100.00;99722.11;105410;1260;61033;-57
2023/01/31 21:21:08;;;;;;;67.90;38.90;;;;;;;-3.34;100.00;99722.11;105492;1257;61906;-58
2023/01/31 21:23:36;;;;;;;72.50;40.10;;;;;;;-3.45;100.00;99722.18;106096;1258;75495;-57
2023/01/31 21:26:05;;;;;;;76.50;43.30;;;;;;;-3.56;100.00;99724.98;105633;1257;66965;-57
2023/01/31 21:28:32;;;;;;;73.60;41.70;;;;;;;-3.67;100.00;99726.27;105785;1257;73395;-58
2023/01/31 21:31:00;;;;;;;82.20;44.10;;;;;;;-3.74;100.00;99727.20;105307;1260;60451;-58
2023/01/31 21:33:28;;;;;;;111.10;58.10;;;;;;;-3.80;100.00;99722.00;106019;1255;61604;-57
2023/01/31 21:35:57;;;;;;;110.60;58.90;;;;;;;-3.86;100.00;99720.73;105407;1256;74268;-56
2023/01/31 21:38:24;;;;;;;87.30;48.10;;;;;;;-3.92;100.00;99722.80;105213;1257;68153;-56
2023/01/31 21:42:13;;;;;;;82.20;46.50;;;;;;;-3.97;100.00;99727.06;105535;1257;74467;-58
2023/01/31 21:43:42;;;;;;;89.00;48.10;;;;;;;-4.00;100.00;99726.95;105811;1256;61514;-57
2023/01/31 21:46:13;;;;;;;92.70;49.60;;;;;;;-4.00;100.00;99724.78;105811;1257;61518;-57
2023/01/31 21:48:40;;;;;;;;;;;;;;;-3.98;100.00;99723.77;105215;1257;75429;-58
2023/01/31 21:51:09;;;;;;;70.40;39.30;;;;;;;-3.97;100.00;99720.79;105364;1256;67535;-58
2023/01/31 21:53:36;;;;;;;78.70;44.60;;;;;;;-3.96;100.00;99720.36;105825;1261;73197;-57
2023/01/31 21:56:15;;;;;;;72.80;42.40;;;;;;;-3.96;100.00;99715.80;105383;1256;62758;-57
2023/01/31 21:58:43;;;;;;;77.50;41.70;;;;;;;-3.97;100.00;99711.48;105384;1261;60466;-57
2023/01/31 22:04:19;;;;;;;69.80;40.50;;;;;;;-4.02;100.00;99700.44;103920;1273;65582;-58
2023/01/31 22:06:49;;;;;;;74.50;42.60;;;;;;;-4.06;100.00;99700.02;104611;1271;74533;-57
2023/01/31 22:09:17;;;;;;;73.90;42.30;;;;;;;-4.12;100.00;99697.55;104743;1267;62954;-58
2023/01/31 22:11:46;;;;;;;67.50;40.90;;;;;;;-4.19;100.00;99698.70;104830;1267;61913;-57
2023/01/31 22:14:14;;;;;;;74.50;43.30;;;;;;;-4.25;100.00;99704.39;105140;1267;75644;-58
2023/01/31 22:16:41;;;;;;;86.20;48.80;;;;;;;-4.31;100.00;99706.11;104682;1267;68610;-59
2023/01/31 22:19:10;;;;;;;82.70;46.80;;;;;;;-4.37;100.00;99708.38;104808;1273;73164;-57
2023/01/31 22:21:39;;;;;;;94.20;52.10;;;;;;;-4.43;100.00;99709.96;105068;1267;61179;-57
2023/01/31 22:24:07;;;;;;;78.70;43.90;;;;;;;-4.48;100.00;99706.89;104765;1271;60834;-58
2023/01/31 22:26:36;;;;;;;83.50;50.70;;;;;;;-4.54;100.00;99708.48;104625;1273;74386;-58
2023/01/31 22:29:05;;;;;;;89.90;53.00;;;;;;;-4.58;100.00;99710.61;104463;1269;68764;-56
2023/01/31 22:31:33;;;;;;;78.80;45.40;;;;;;;-4.59;100.00;99716.65;104262;1272;74027;-57
2023/01/31 22:34:03;;;;;;;87.50;50.20;;;;;;;-4.58;100.00;99715.89;104674;1271;61481;-58
2023/01/31 22:36:31;;;;;;;80.90;45.10;;;;;;;-4.55;100.00;99715.02;104453;1269;61651;-57
2023/01/31 22:38:58;;;;;;;80.70;46.00;;;;;;;-4.54;100.00;99714.77;104489;1273;75318;-59
2023/01/31 22:41:26;;;;;;;62.90;39.40;;;;;;;-4.53;100.00;99714.02;104573;1273;67627;-57
2023/01/31 22:43:54;;;;;;;74.10;41.20;;;;;;;-4.52;100.00;99717.17;104292;1272;74069;-59
2023/01/31 22:46:24;;;;;;;73.60;43.70;;;;;;;-4.50;100.00;99719.10;104469;1273;61582;-60
2023/01/31 22:48:51;;;;;;;71.40;41.70;;;;;;;-4.49;100.00;99722.23;104552;1267;61070;-59
2023/01/31 22:51:23;;;;;;;75.30;43.40;;;;;;;-4.44;100.00;99723.63;104750;1267;75382;-59
2023/01/31 22:53:53;;;;;;;74.00;42.40;;;;;;;-4.41;100.00;99722.52;104593;1270;68510;-59
2023/01/31 22:56:28;;;;;;;69.80;42.20;;;;;;;-4.36;100.00;99725.80;104355;1271;73114;-62
2023/01/31 22:59:02;;;;;;;70.00;41.20;;;;;;;-4.32;100.00;99728.91;104306;1273;61544;-61
2023/01/31 23:01:33;;;;;;;76.50;44.00;;;;;;;-4.28;100.00;99734.04;104337;1271;61903;-60
2023/01/31 23:04:01;;;;;;;63.90;36.90;;;;;;;-4.24;100.00;99729.75;104314;1268;75600;-60
2023/01/31 23:06:28;;;;;;;64.80;38.50;;;;;;;-4.22;100.00;99733.30;104387;1270;66974;-60
2023/01/31 23:08:56;;;;;;;68.30;37.70;;;;;;;-4.19;100.00;99735.98;104456;1267;74155;-61
2023/01/31 23:11:23;;;;;;;62.80;35.80;;;;;;;-4.18;100.00;99734.04;104455;1274;60462;-60
2023/01/31 23:13:50;;;;;;;68.80;39.20;;;;;;;-4.16;100.00;99732.63;104567;1269;60817;-60
2023/01/31 23:16:20;;;;;;;65.60;39.00;;;;;;;-4.16;100.00;99727.48;104651;1267;73745;-58
2023/01/31 23:18:47;;;;;;;57.80;35.10;;;;;;;-4.17;100.00;99723.98;104459;1270;68624;-59
2023/01/31 23:21:16;;;;;;;51.50;30.90;;;;;;;-4.15;100.00;99720.64;104457;1267;74262;-61
2023/01/31 23:23:44;;;;;;;57.70;29.90;;;;;;;-4.13;100.00;99719.34;104607;1273;60463;-62
2023/01/31 23:26:12;;;;;;;51.80;29.50;;;;;;;-4.11;100.00;99723.96;104615;1267;60415;-60
2023/01/31 23:28:40;;;;;;;56.60;30.00;;;;;;;-4.06;100.00;99725.36;104702;1270;75487;-61
2023/01/31 23:31:07;;;;;;;50.60;29.70;;;;;;;-4.02;100.00;99725.02;104775;1267;67430;-60
2023/01/31 23:33:34;;;;;;;50.10;27.10;;;;;;;-3.97;100.00;99723.02;104870;1267;74261;-61
2023/01/31 23:36:02;;;;;;;43.00;24.80;;;;;;;-3.93;100.00;99726.66;104682;1267;60491;-60
2023/01/31 23:38:30;;;;;;;48.50;29.40;;;;;;;-3.88;100.00;99731.58;104865;1271;62241;-59
2023/01/31 23:40:57;;;;;;;58.90;34.30;;;;;;;-3.87;100.00;99740.64;104616;1270;75101;-59
2023/01/31 23:43:24;;;;;;;58.30;35.30;;;;;;;-3.89;100.00;99747.95;104892;1270;68617;-61
2023/01/31 23:45:51;;;;;;;63.60;36.00;;;;;;;-3.95;100.00;99746.15;104805;1273;73035;-59
2023/01/31 23:48:19;;;;;;;57.20;34.80;;;;;;;-4.01;100.00;99746.05;104476;1270;60758;-59
2023/01/31 23:50:46;;;;;;;57.90;34.80;;;;;;;-4.07;100.00;99744.06;104955;1267;60611;-59
2023/01/31 23:53:15;;;;;;;58.80;34.30;;;;;;;-4.11;100.00;99743.83;104573;1271;75462;-61
2023/01/31 23:55:42;;;;;;;49.80;30.20;;;;;;;-4.16;100.00;99746.32;104746;1270;66582;-60
2023/01/31 23:58:09;;;;;;;58.00;32.30;;;;;;;-4.19;100.00;99749.59;104927;1273;74012;-60
